Time;durP1;ratioP1;P1;durP2;ratioP2;P2;SDS_P1;SDS_P2;PMS_P1;PMS_P2;Temp;Humidity;BMP_temperature;BMP_pressure;BME280_temperature;BME280_humidity;BME280_pressure;Samples;Min_cycle;Max_cycle;Signal;HPM_P1;HPM_P2
2022/08/05 00:02:04;;;;;;;5.30;0.60;;;18.50;99.90;;;;;;5031743;28;20602;-69
2022/08/05 00:04:30;;;;;;;4.35;0.70;;;18.50;99.90;;;;;;5040873;28;20103;-71
2022/08/05 00:06:55;;;;;;;3.88;0.47;;;18.50;99.90;;;;;;5037076;28;20044;-70
2022/08/05 00:09:21;;;;;;;3.53;0.60;;;18.50;99.90;;;;;;4988006;28;20041;-70
2022/08/05 00:11:48;;;;;;;2.67;0.50;;;18.50;99.90;;;;;;5046149;28;20059;-70
2022/08/05 00:14:14;;;;;;;7.97;0.70;;;18.50;99.90;;;;;;5035639;28;20740;-70
2022/08/05 00:16:40;;;;;;;5.95;0.60;;;18.50;99.90;;;;;;5004195;28;20060;-70
2022/08/05 00:19:06;;;;;;;4.88;0.73;;;18.50;99.90;;;;;;5039607;28;20727;-70
2022/08/05 00:21:32;;;;;;;4.10;0.60;;;18.60;99.90;;;;;;5016862;28;20037;-69
2022/08/05 00:23:59;;;;;;;4.47;0.60;;;18.60;99.90;;;;;;5037830;28;20057;-70
2022/08/05 00:26:25;;;;;;;2.95;0.50;;;18.60;99.90;;;;;;5037003;28;20048;-69
2022/08/05 00:28:51;;;;;;;3.60;0.63;;;18.60;99.90;;;;;;5040584;28;20066;-71
2022/08/05 00:31:18;;;;;;;4.78;0.70;;;18.50;99.90;;;;;;5034952;28;20049;-70
2022/08/05 00:33:43;;;;;;;4.05;0.50;;;18.60;99.90;;;;;;5036361;28;20052;-70
2022/08/05 00:36:09;;;;;;;6.10;0.70;;;18.60;99.90;;;;;;5022336;28;20060;-71
2022/08/05 00:38:35;;;;;;;5.10;0.70;;;18.60;99.90;;;;;;5036399;28;20045;-70
2022/08/05 00:41:01;;;;;;;5.35;0.60;;;18.60;99.90;;;;;;5018705;28;21090;-70
2022/08/05 00:43:27;;;;;;;3.85;0.60;;;18.60;99.90;;;;;;5031387;28;20032;-68
2022/08/05 00:45:54;;;;;;;6.90;1.08;;;18.60;99.90;;;;;;5039049;28;20447;-70
2022/08/05 00:48:21;;;;;;;3.17;0.50;;;18.60;99.90;;;;;;5040438;28;20300;-70
2022/08/05 00:50:50;;;;;;;5.63;0.88;;;18.60;99.90;;;;;;5000921;28;20045;-69
2022/08/05 00:53:20;;;;;;;6.80;0.80;;;18.60;99.90;;;;;;5013564;28;20052;-70
2022/08/05 00:55:47;;;;;;;6.18;0.60;;;18.50;99.90;;;;;;5039755;28;20669;-71
2022/08/05 00:58:15;;;;;;;6.20;0.70;;;18.50;99.90;;;;;;5014515;28;20051;-71
2022/08/05 01:00:41;;;;;;;5.68;0.77;;;18.60;99.90;;;;;;5001982;28;20072;-69
2022/08/05 01:03:07;;;;;;;6.80;0.80;;;18.50;99.90;;;;;;5016590;28;20072;-69
2022/08/05 01:05:33;;;;;;;5.20;0.65;;;18.50;99.90;;;;;;5036035;28;20144;-71
2022/08/05 01:07:59;;;;;;;4.15;0.70;;;18.50;99.90;;;;;;5031589;28;20041;-69
2022/08/05 01:10:33;;;;;;;5.10;0.52;;;18.50;99.90;;;;;;5034115;28;20029;-68
2022/08/05 01:13:06;;;;;;;5.78;0.75;;;18.50;99.90;;;;;;5033374;28;20788;-69
2022/08/05 01:15:36;;;;;;;;;;;18.50;99.90;;;;;;5019499;28;20141;-69
2022/08/05 01:18:08;;;;;;;3.92;0.50;;;18.40;99.90;;;;;;5035253;28;20249;-69
2022/08/05 01:20:34;;;;;;;5.32;0.60;;;18.40;99.90;;;;;;5038203;28;20373;-70
2022/08/05 01:23:20;;;;;;;3.53;0.50;;;18.40;99.90;;;;;;5035207;28;20036;-70
2022/08/05 01:26:22;;;;;;;3.95;0.40;;;18.40;99.90;;;;;;5034965;28;20132;-70
2022/08/05 01:29:05;;;;;;;3.17;0.30;;;18.40;99.90;;;;;;5007570;28;20114;-70
2022/08/05 01:31:43;;;;;;;;;;;18.40;99.90;;;;;;5017606;28;20056;-70
2022/08/05 01:34:09;;;;;;;4.05;0.40;;;18.40;99.90;;;;;;5020841;28;19924;-70
2022/08/05 01:36:43;;;;;;;3.13;0.50;;;18.40;99.90;;;;;;5041200;28;20573;-70
2022/08/05 01:39:10;;;;;;;2.83;0.60;;;18.40;99.90;;;;;;5039277;28;20634;-69
2022/08/05 01:41:37;;;;;;;2.53;0.30;;;18.40;99.90;;;;;;5035764;28;20052;-71
2022/08/05 01:44:05;;;;;;;2.88;0.40;;;18.50;99.90;;;;;;5042840;28;20873;-71
2022/08/05 01:46:33;;;;;;;3.22;0.50;;;18.40;99.90;;;;;;4999544;28;20122;-71
2022/08/05 01:49:00;;;;;;;3.05;0.40;;;18.40;99.90;;;;;;5035135;28;20672;-71
2022/08/05 01:51:29;;;;;;;3.03;0.40;;;18.40;99.90;;;;;;5021346;28;20112;-70
2022/08/05 01:53:57;;;;;;;4.05;0.50;;;18.30;99.90;;;;;;5037951;28;20048;-69
2022/08/05 01:56:25;;;;;;;4.53;0.40;;;18.30;99.90;;;;;;5036672;28;20033;-69
2022/08/05 01:58:53;;;;;;;2.78;0.50;;;18.20;99.90;;;;;;5040834;28;20625;-71
2022/08/05 02:01:20;;;;;;;2.88;0.47;;;18.20;99.90;;;;;;5041764;28;20049;-69
2022/08/05 02:03:47;;;;;;;4.85;0.40;;;18.10;99.90;;;;;;5042569;28;20047;-71
2022/08/05 02:06:14;;;;;;;2.78;0.47;;;18.10;99.90;;;;;;5024113;28;20041;-70
2022/08/05 02:08:41;;;;;;;6.90;0.50;;;18.00;99.90;;;;;;5037284;28;20110;-69
2022/08/05 02:11:12;;;;;;;3.35;0.40;;;18.00;99.90;;;;;;5005086;28;20040;-69
2022/08/05 02:13:59;;;;;;;5.22;0.50;;;18.00;99.90;;;;;;5043291;28;20044;-70
2022/08/05 02:16:29;;;;;;;4.78;0.50;;;17.90;99.90;;;;;;5042412;28;20471;-71
2022/08/05 02:19:20;;;;;;;1.67;0.40;;;17.90;99.90;;;;;;5008048;28;20041;-70
2022/08/05 02:22:00;;;;;;;3.35;0.63;;;17.90;99.90;;;;;;5005419;28;20059;-69
2022/08/05 02:24:30;;;;;;;4.78;0.50;;;17.90;99.90;;;;;;5039854;28;20512;-69
2022/08/05 02:27:00;;;;;;;3.47;0.70;;;17.80;99.90;;;;;;5035675;28;20051;-68
2022/08/05 02:29:28;;;;;;;6.30;0.60;;;17.80;99.90;;;;;;5017602;28;20075;-70
2022/08/05 02:31:58;;;;;;;2.70;0.45;;;17.80;99.90;;;;;;5042985;28;20200;-70
2022/08/05 02:34:28;;;;;;;3.85;0.50;;;17.80;99.90;;;;;;5041347;28;20691;-70
2022/08/05 02:36:58;;;;;;;3.88;0.40;;;17.70;99.90;;;;;;5022778;28;20609;-70
2022/08/05 02:39:26;;;;;;;2.58;0.40;;;17.80;99.90;;;;;;5042035;28;20094;-71
2022/08/05 02:41:54;;;;;;;4.63;0.40;;;17.70;99.90;;;;;;5043074;28;20486;-69
2022/08/05 02:44:23;;;;;;;5.28;0.45;;;17.70;99.90;;;;;;5039241;28;20076;-71
2022/08/05 02:46:50;;;;;;;3.95;0.50;;;17.70;99.90;;;;;;5043498;28;20453;-70
2022/08/05 02:49:16;;;;;;;1.70;0.32;;;17.70;99.90;;;;;;5042931;28;20044;-71
2022/08/05 02:51:43;;;;;;;3.10;0.50;;;17.70;99.90;;;;;;5040483;28;20036;-70
2022/08/05 02:54:11;;;;;;;2.55;0.40;;;17.70;99.90;;;;;;5039025;28;20041;-69
2022/08/05 02:56:38;;;;;;;3.67;0.40;;;17.70;99.90;;;;;;5042745;28;20121;-70
2022/08/05 02:59:05;;;;;;;4.43;0.73;;;17.70;99.90;;;;;;5004521;28;20388;-70
2022/08/05 03:01:34;;;;;;;3.63;0.50;;;17.70;99.90;;;;;;5006839;28;20047;-70
2022/08/05 03:04:02;;;;;;;3.45;0.50;;;17.70;99.90;;;;;;5041000;28;20506;-71
2022/08/05 03:06:28;;;;;;;3.88;0.50;;;17.70;99.90;;;;;;5040683;28;20433;-70
2022/08/05 03:08:54;;;;;;;3.42;0.55;;;17.60;99.90;;;;;;5040402;28;20046;-69
2022/08/05 03:11:22;;;;;;;1.75;0.40;;;17.60;99.90;;;;;;5036053;28;20045;-70
2022/08/05 03:13:48;;;;;;;3.40;0.50;;;17.60;99.90;;;;;;5023200;28;20665;-70
2022/08/05 03:16:14;;;;;;;3.47;0.30;;;17.60;99.90;;;;;;5040297;28;20045;-71
2022/08/05 03:18:40;;;;;;;2.70;0.40;;;17.70;99.90;;;;;;5038776;28;20541;-70
2022/08/05 03:21:07;;;;;;;2.22;0.30;;;17.70;99.90;;;;;;5039003;28;20559;-72
2022/08/05 03:23:34;;;;;;;4.43;0.50;;;17.70;99.90;;;;;;5038415;28;20776;-71
2022/08/05 03:26:00;;;;;;;4.00;0.50;;;17.60;99.90;;;;;;5042199;28;20047;-70
2022/08/05 03:28:27;;;;;;;3.95;0.40;;;17.60;99.90;;;;;;5040302;28;20048;-70
2022/08/05 03:30:53;;;;;;;2.42;0.60;;;17.70;99.90;;;;;;5024102;28;20064;-72
2022/08/05 03:33:20;;;;;;;5.53;0.82;;;17.60;99.90;;;;;;5003471;28;20169;-69
2022/08/05 03:35:46;;;;;;;3.05;0.70;;;17.60;99.90;;;;;;5042928;28;20072;-70
2022/08/05 03:38:13;;;;;;;4.22;0.63;;;17.60;99.90;;;;;;5005715;28;20052;-71
2022/08/05 03:40:41;;;;;;;4.53;0.70;;;17.50;99.90;;;;;;5022216;28;20127;-70
2022/08/05 03:43:06;;;;;;;2.92;0.70;;;17.50;99.90;;;;;;5044574;28;20037;-70
2022/08/05 03:45:32;;;;;;;4.18;1.00;;;17.40;99.90;;;;;;5019307;28;20055;-70
2022/08/05 03:47:58;;;;;;;3.88;0.82;;;17.40;99.90;;;;;;5043079;28;20168;-70
2022/08/05 03:50:27;;;;;;;4.63;1.50;;;17.30;99.90;;;;;;5006481;28;20044;-70
2022/08/05 03:53:03;;;;;;;5.90;1.73;;;17.30;99.90;;;;;;5038875;28;20513;-71
2022/08/05 03:55:36;;;;;;;3.30;1.63;;;17.20;99.90;;;;;;5043124;28;20127;-70
2022/08/05 03:58:03;;;;;;;6.55;1.92;;;17.20;99.90;;;;;;5040314;28;20490;-69
2022/08/05 04:00:31;;;;;;;4.82;2.10;;;17.20;99.90;;;;;;5001512;28;20040;-71
2022/08/05 04:03:00;;;;;;;7.13;2.10;;;17.10;99.90;;;;;;5021963;28;20048;-72
2022/08/05 04:05:31;;;;;;;5.50;1.70;;;17.10;99.90;;;;;;5033122;28;20053;-70
2022/08/05 04:07:59;;;;;;;5.75;2.10;;;17.10;99.90;;;;;;5026820;28;20093;-70
2022/08/05 04:10:26;;;;;;;8.23;2.15;;;17.00;99.90;;;;;;5034959;28;20131;-71
2022/08/05 04:12:52;;;;;;;5.75;2.00;;;17.00;99.90;;;;;;5019824;28;20216;-70
2022/08/05 04:15:18;;;;;;;3.60;1.73;;;17.00;99.90;;;;;;5037992;28;20036;-71
2022/08/05 04:17:44;;;;;;;5.18;2.30;;;17.00;99.90;;;;;;5036843;28;20726;-71
2022/08/05 04:20:22;;;;;;;5.68;2.42;;;16.90;99.90;;;;;;5019612;28;20045;-71
2022/08/05 04:22:48;;;;;;;4.15;2.35;;;17.00;99.90;;;;;;5017501;28;20048;-71
2022/08/05 04:25:14;;;;;;;5.25;2.10;;;17.00;99.90;;;;;;5032882;28;20048;-71
2022/08/05 04:27:40;;;;;;;4.65;2.30;;;16.90;99.90;;;;;;5038891;28;20439;-70
2022/08/05 04:30:08;;;;;;;8.98;2.70;;;16.90;99.90;;;;;;5032175;28;20045;-70
2022/08/05 04:32:33;;;;;;;6.93;2.10;;;16.90;99.90;;;;;;5016131;28;20083;-70
2022/08/05 04:34:59;;;;;;;5.93;2.10;;;16.90;99.90;;;;;;5026470;28;20061;-71
2022/08/05 04:37:25;;;;;;;5.82;2.42;;;16.90;99.90;;;;;;5034081;28;20501;-70
2022/08/05 04:39:50;;;;;;;4.85;2.50;;;16.90;99.90;;;;;;5036862;28;20085;-72
2022/08/05 04:42:16;;;;;;;7.45;2.10;;;17.00;99.90;;;;;;5036810;28;20131;-69
2022/08/05 04:44:42;;;;;;;6.43;2.25;;;16.90;99.90;;;;;;5035814;28;20532;-70
2022/08/05 04:47:07;;;;;;;6.60;1.83;;;17.00;99.90;;;;;;5036711;28;20044;-70
2022/08/05 04:49:33;;;;;;;6.80;2.28;;;17.00;99.90;;;;;;5038034;28;20067;-71
2022/08/05 04:51:59;;;;;;;7.40;2.17;;;17.00;99.90;;;;;;5036659;28;20156;-71
2022/08/05 04:54:26;;;;;;;7.32;2.50;;;17.10;99.90;;;;;;5022023;28;20057;-69
2022/08/05 04:56:54;;;;;;;6.57;2.08;;;17.10;99.90;;;;;;5020360;28;20594;-69
2022/08/05 04:59:21;;;;;;;6.60;2.00;;;17.10;99.90;;;;;;5034642;28;20060;-68
2022/08/05 05:01:48;;;;;;;4.97;2.40;;;17.10;99.90;;;;;;5035580;28;20516;-69
2022/08/05 05:04:14;;;;;;;4.35;2.00;;;17.10;99.90;;;;;;5034164;28;20032;-70
2022/08/05 05:06:39;;;;;;;5.50;2.22;;;17.20;99.90;;;;;;5036640;28;20093;-70
2022/08/05 05:09:05;;;;;;;6.28;2.10;;;17.20;99.90;;;;;;5018662;28;20513;-69
2022/08/05 05:11:31;;;;;;;4.65;1.90;;;17.20;99.90;;;;;;5039092;28;20815;-70
2022/08/05 05:13:56;;;;;;;3.95;1.60;;;17.20;99.90;;;;;;5036696;28;20037;-70
2022/08/05 05:16:22;;;;;;;3.95;1.42;;;17.20;99.90;;;;;;5036359;28;20053;-70
2022/08/05 05:18:48;;;;;;;5.47;1.58;;;17.30;99.90;;;;;;5035327;28;20127;-71
2022/08/05 05:21:14;;;;;;;5.00;1.70;;;17.40;99.90;;;;;;5040390;28;20036;-71
2022/08/05 05:23:39;;;;;;;3.97;1.58;;;17.30;99.90;;;;;;5036156;28;20615;-70
2022/08/05 05:26:05;;;;;;;4.97;1.92;;;17.40;99.90;;;;;;5033786;28;20493;-69
2022/08/05 05:28:31;;;;;;;5.38;2.15;;;17.50;99.90;;;;;;5015192;28;20047;-68
2022/08/05 05:30:57;;;;;;;6.82;2.20;;;17.50;99.90;;;;;;5039352;28;20044;-70
2022/08/05 05:33:22;;;;;;;4.70;2.15;;;17.50;99.90;;;;;;5032689;28;20052;-70
2022/08/05 05:35:49;;;;;;;5.07;2.30;;;17.50;99.90;;;;;;5032169;28;20531;-70
2022/08/05 05:38:16;;;;;;;3.55;1.88;;;17.50;99.90;;;;;;5001656;28;20028;-71
2022/08/05 05:40:43;;;;;;;5.55;1.70;;;17.50;99.90;;;;;;5019050;28;20049;-71
2022/08/05 05:43:08;;;;;;;6.25;1.80;;;17.50;99.90;;;;;;5032522;28;20460;-71
2022/08/05 05:45:34;;;;;;;4.60;1.70;;;17.50;99.90;;;;;;4998170;28;20095;-70
2022/08/05 05:48:00;;;;;;;3.28;1.50;;;17.50;99.90;;;;;;5030111;28;20041;-69
2022/08/05 05:50:26;;;;;;;4.60;1.60;;;17.50;99.90;;;;;;5035813;28;20048;-68
2022/08/05 05:52:53;;;;;;;3.15;1.33;;;17.50;99.90;;;;;;5034412;28;20044;-69
2022/08/05 05:55:18;;;;;;;4.30;1.85;;;17.50;99.90;;;;;;5038031;28;20650;-70
2022/08/05 05:57:46;;;;;;;8.85;1.65;;;17.40;99.90;;;;;;5013385;28;20037;-71
2022/08/05 06:00:15;;;;;;;4.28;1.50;;;17.40;99.90;;;;;;4995735;28;20102;-72
2022/08/05 06:02:41;;;;;;;6.30;1.50;;;17.50;99.90;;;;;;5028968;28;20338;-70
2022/08/05 06:05:07;;;;;;;4.40;1.50;;;17.40;99.90;;;;;;5049470;28;20672;-71
2022/08/05 06:07:33;;;;;;;5.45;1.60;;;17.40;99.90;;;;;;5032298;28;20045;-68
2022/08/05 06:09:59;;;;;;;3.65;1.23;;;17.40;99.90;;;;;;5050265;28;20048;-70
2022/08/05 06:12:24;;;;;;;5.43;1.80;;;17.40;99.90;;;;;;5048171;28;20063;-70
2022/08/05 06:14:50;;;;;;;4.43;1.27;;;17.30;99.90;;;;;;5016869;28;20464;-69
2022/08/05 06:17:16;;;;;;;4.35;1.50;;;17.30;99.90;;;;;;5039995;28;20408;-70
2022/08/05 06:19:41;;;;;;;4.28;1.85;;;17.30;99.90;;;;;;5000608;28;20130;-69
2022/08/05 06:22:07;;;;;;;5.78;1.52;;;17.30;99.90;;;;;;5030400;28;20420;-70
2022/08/05 06:24:34;;;;;;;8.10;1.88;;;17.20;99.90;;;;;;5010144;28;20779;-69
2022/08/05 06:27:00;;;;;;;3.05;1.48;;;17.20;99.90;;;;;;5031497;28;20486;-70
2022/08/05 06:29:26;;;;;;;4.30;1.40;;;17.20;99.90;;;;;;5026555;28;20512;-69
2022/08/05 06:31:52;;;;;;;14.20;1.90;;;17.20;99.90;;;;;;5020537;28;20475;-69
2022/08/05 06:34:18;;;;;;;6.10;1.55;;;17.20;99.90;;;;;;5029507;28;20091;-70
2022/08/05 06:36:43;;;;;;;3.83;1.42;;;17.20;99.90;;;;;;5036719;28;20037;-70
2022/08/05 06:39:09;;;;;;;6.25;1.50;;;17.30;99.90;;;;;;5034153;28;20049;-69
2022/08/05 06:41:35;;;;;;;5.65;1.30;;;17.30;99.90;;;;;;5046838;28;20055;-70
2022/08/05 06:44:00;;;;;;;2.83;1.13;;;17.30;99.90;;;;;;5045807;28;20098;-70
2022/08/05 06:46:26;;;;;;;7.95;1.45;;;17.40;99.90;;;;;;5037113;28;20119;-69
2022/08/05 06:48:52;;;;;;;5.38;1.20;;;17.60;99.90;;;;;;5030506;28;20045;-70
2022/08/05 06:51:17;;;;;;;3.97;1.00;;;17.70;99.90;;;;;;5022712;28;20157;-69
2022/08/05 06:53:43;;;;;;;6.57;1.45;;;17.90;99.90;;;;;;5037106;28;20049;-69
2022/08/05 06:56:09;;;;;;;9.18;0.82;;;18.00;99.90;;;;;;5035693;28;20640;-70
2022/08/05 06:58:34;;;;;;;3.83;0.75;;;18.00;99.90;;;;;;5039575;28;20044;-70
2022/08/05 07:01:01;;;;;;;8.90;0.60;;;18.40;99.90;;;;;;5037408;28;20729;-70
2022/08/05 07:03:29;;;;;;;4.60;0.32;;;19.10;99.90;;;;;;5038063;28;20159;-71
2022/08/05 07:05:55;;;;;;;4.60;0.40;;;19.80;99.90;;;;;;5020180;28;20439;-71
2022/08/05 07:08:23;;;;;;;2.08;0.25;;;20.50;99.90;;;;;;5020430;28;20547;-72
2022/08/05 07:10:50;;;;;;;4.30;0.20;;;21.10;99.90;;;;;;4996247;28;20040;-69
2022/08/05 07:18:45;;;;;;;6.75;0.30;;;22.50;99.90;;;;;;5036057;28;20091;-69
2022/08/05 07:21:11;;;;;;;4.53;0.30;;;22.60;99.90;;;;;;5044714;28;20135;-72
2022/08/05 07:23:37;;;;;;;4.13;0.32;;;22.50;99.90;;;;;;5053197;28;20041;-70
2022/08/05 07:26:03;;;;;;;6.38;0.30;;;22.20;99.90;;;;;;5021372;28;20041;-69
2022/08/05 07:28:29;;;;;;;4.40;0.20;;;21.60;99.90;;;;;;5006638;28;20071;-70
2022/08/05 07:30:55;;;;;;;1.65;0.30;;;21.40;99.90;;;;;;5052482;28;20044;-71
2022/08/05 07:33:21;;;;;;;5.03;0.30;;;21.00;99.90;;;;;;5040676;28;20048;-68
2022/08/05 07:35:47;;;;;;;2.92;0.32;;;20.70;99.90;;;;;;5039917;28;20651;-71
2022/08/05 07:38:14;;;;;;;2.88;0.43;;;20.50;99.90;;;;;;5030769;28;20048;-70
2022/08/05 07:40:39;;;;;;;3.95;0.40;;;20.20;99.90;;;;;;5038658;28;20386;-68
2022/08/05 07:43:05;;;;;;;4.05;0.30;;;20.10;99.90;;;;;;5039482;28;20048;-72
2022/08/05 07:45:34;;;;;;;2.30;0.30;;;20.30;99.90;;;;;;5035106;28;21431;-70
2022/08/05 07:47:59;;;;;;;2.38;0.30;;;20.30;99.90;;;;;;5019501;28;20462;-70
2022/08/05 07:50:25;;;;;;;3.28;0.30;;;20.60;99.90;;;;;;5026459;28;20133;-69
2022/08/05 07:52:51;;;;;;;3.40;0.20;;;21.10;99.90;;;;;;5046155;28;20682;-70
2022/08/05 07:55:16;;;;;;;2.70;0.20;;;21.70;99.90;;;;;;5036978;28;20047;-70
2022/08/05 07:57:42;;;;;;;2.47;0.30;;;22.20;99.90;;;;;;5034728;28;20350;-71
2022/08/05 08:00:08;;;;;;;3.42;0.25;;;21.90;99.90;;;;;;5030587;28;20572;-70
2022/08/05 08:02:34;;;;;;;2.85;0.40;;;21.80;99.90;;;;;;5029580;28;20088;-72
2022/08/05 08:05:00;;;;;;;1.88;0.22;;;21.90;99.90;;;;;;5047219;28;20116;-71
2022/08/05 08:07:26;;;;;;;2.45;0.32;;;21.80;99.90;;;;;;5048778;28;20052;-70
2022/08/05 08:09:52;;;;;;;2.22;0.28;;;21.60;99.90;;;;;;5029059;28;20072;-71
2022/08/05 08:12:18;;;;;;;1.75;0.20;;;21.60;99.90;;;;;;5042550;28;20094;-70
2022/08/05 08:14:44;;;;;;;2.42;0.22;;;21.70;99.90;;;;;;5031693;28;20044;-70
2022/08/05 08:17:10;;;;;;;3.83;0.35;;;21.80;99.90;;;;;;5035103;28;20639;-70
2022/08/05 08:19:37;;;;;;;1.38;0.20;;;21.90;99.90;;;;;;5028238;28;20059;-72
2022/08/05 08:22:03;;;;;;;3.88;0.52;;;21.90;99.90;;;;;;5028331;28;20057;-71
2022/08/05 08:24:29;;;;;;;2.30;0.30;;;21.80;99.90;;;;;;5034068;28;20057;-70
2022/08/05 08:26:55;;;;;;;0.80;0.10;;;22.10;99.90;;;;;;5031278;28;20086;-71
2022/08/05 08:29:21;;;;;;;2.70;0.20;;;22.40;99.90;;;;;;5049151;28;20431;-69
2022/08/05 08:31:47;;;;;;;2.80;0.30;;;22.40;99.90;;;;;;5036422;28;20107;-70
2022/08/05 08:34:13;;;;;;;3.83;0.40;;;22.00;99.90;;;;;;5049646;28;20052;-70
2022/08/05 08:36:39;;;;;;;3.38;0.30;;;22.00;99.90;;;;;;5027938;28;20088;-71
2022/08/05 08:39:05;;;;;;;4.30;0.30;;;22.10;99.90;;;;;;5049423;28;20059;-71
2022/08/05 08:41:34;;;;;;;2.47;0.20;;;22.10;99.90;;;;;;5049058;28;20134;-71
2022/08/05 08:44:01;;;;;;;4.43;0.50;;;22.00;99.90;;;;;;5021575;28;20055;-70
2022/08/05 08:46:30;;;;;;;5.50;0.38;;;21.90;99.90;;;;;;5031400;28;20047;-71
2022/08/05 08:48:56;;;;;;;1.98;0.25;;;21.70;99.90;;;;;;5049937;28;20048;-71
2022/08/05 08:51:25;;;;;;;2.53;0.20;;;21.50;99.90;;;;;;5039515;28;20047;-71
2022/08/05 08:53:51;;;;;;;2.92;0.30;;;21.40;99.90;;;;;;5033904;28;20085;-71
2022/08/05 08:56:19;;;;;;;1.80;0.20;;;21.60;99.90;;;;;;5049322;28;20052;-69
2022/08/05 08:58:45;;;;;;;2.47;0.20;;;22.00;99.90;;;;;;5029818;28;20576;-70
2022/08/05 09:01:11;;;;;;;0.77;0.13;;;22.10;99.90;;;;;;5026421;28;20372;-71
2022/08/05 09:03:37;;;;;;;1.58;0.20;;;22.00;99.90;;;;;;5038921;28;20112;-70
2022/08/05 09:06:04;;;;;;;3.22;0.20;;;21.80;99.90;;;;;;5009385;28;20551;-71
2022/08/05 09:08:30;;;;;;;1.92;0.20;;;21.40;99.90;;;;;;5017283;28;20084;-70
2022/08/05 09:10:56;;;;;;;2.15;0.40;;;21.10;99.90;;;;;;5036374;28;20518;-72
2022/08/05 09:13:21;;;;;;;3.58;0.35;;;20.80;99.90;;;;;;5032697;28;20287;-69
2022/08/05 09:15:48;;;;;;;4.85;0.22;;;21.00;99.90;;;;;;5011853;28;20063;-71
2022/08/05 09:18:14;;;;;;;2.28;0.30;;;21.60;99.90;;;;;;5048549;28;20095;-71
2022/08/05 09:20:42;;;;;;;4.75;0.30;;;22.30;99.90;;;;;;5040622;28;20048;-72
2022/08/05 09:23:10;;;;;;;4.05;0.30;;;22.60;99.90;;;;;;5040386;28;20071;-69
2022/08/05 09:25:46;;;;;;;3.20;0.32;;;23.00;99.90;;;;;;5021587;28;20138;-69
2022/08/05 09:28:22;;;;;;;3.20;0.10;;;23.70;99.90;;;;;;5033173;28;21017;-71
2022/08/05 09:31:05;;;;;;;4.78;0.30;;;24.00;99.90;;;;;;5048127;28;20326;-70
2022/08/05 09:33:31;;;;;;;2.72;0.30;;;24.10;99.90;;;;;;5046227;28;20721;-72
2022/08/05 09:36:03;;;;;;;2.78;0.20;;;23.90;99.90;;;;;;5029686;28;20049;-70
2022/08/05 09:38:29;;;;;;;3.83;0.20;;;24.90;99.90;;;;;;5033288;28;20060;-71
2022/08/05 09:41:06;;;;;;;4.82;0.20;;;25.20;99.90;;;;;;5011469;28;20047;-72
2022/08/05 09:43:37;;;;;;;1.73;0.20;;;24.70;99.90;;;;;;5034774;28;20516;-70
2022/08/05 09:46:05;;;;;;;2.55;0.10;;;23.30;99.90;;;;;;5029773;28;20056;-72
2022/08/05 09:48:33;;;;;;;2.35;0.20;;;22.40;99.90;;;;;;5009656;28;20256;-70
2022/08/05 09:51:04;;;;;;;4.55;0.20;;;22.70;99.90;;;;;;5027603;28;20491;-69
2022/08/05 09:53:49;;;;;;;2.80;0.27;;;23.00;99.90;;;;;;5035128;28;20056;-70
2022/08/05 09:56:25;;;;;;;1.08;0.10;;;23.50;99.90;;;;;;5033205;28;20048;-70
2022/08/05 09:59:02;;;;;;;2.47;0.10;;;23.50;99.90;;;;;;5013844;28;20041;-70
2022/08/05 10:01:28;;;;;;;1.75;0.10;;;23.50;99.90;;;;;;4999921;28;20788;-70
2022/08/05 10:04:01;;;;;;;2.70;0.10;;;23.30;99.90;;;;;;5023207;28;20044;-70
2022/08/05 10:06:28;;;;;;;2.15;0.10;;;23.40;99.90;;;;;;5018799;28;20078;-72
2022/08/05 10:08:55;;;;;;;2.42;0.17;;;22.90;99.90;;;;;;5008287;28;20087;-69
2022/08/05 10:11:21;;;;;;;1.83;0.10;;;23.10;99.90;;;;;;5038687;28;20439;-72
2022/08/05 10:13:46;;;;;;;0.85;0.10;;;23.40;99.90;;;;;;5031611;28;20052;-72
2022/08/05 10:16:33;;;;;;;2.60;0.10;;;22.90;99.90;;;;;;5008984;28;20047;-71
2022/08/05 10:19:00;;;;;;;1.20;0.10;;;22.60;99.90;;;;;;5031118;28;20063;-71
2022/08/05 10:21:26;;;;;;;2.50;0.10;;;22.30;99.90;;;;;;5040157;28;20053;-73
2022/08/05 10:23:54;;;;;;;0.50;0.00;;;22.40;99.90;;;;;;5019153;28;20358;-70
2022/08/05 10:26:20;;;;;;;2.45;0.20;;;22.80;99.90;;;;;;5023124;28;20048;-70
2022/08/05 10:28:46;;;;;;;2.05;0.10;;;23.10;99.90;;;;;;5047158;28;20045;-70
2022/08/05 10:31:16;;;;;;;1.10;0.10;;;23.50;99.90;;;;;;5034235;28;20048;-70
2022/08/05 10:33:43;;;;;;;0.82;0.05;;;23.00;99.90;;;;;;5031620;28;20089;-71
2022/08/05 10:36:08;;;;;;;1.48;0.08;;;23.20;99.90;;;;;;5034272;28;20461;-70
2022/08/05 10:38:36;;;;;;;1.42;0.10;;;23.40;99.90;;;;;;5025244;28;20492;-72
2022/08/05 10:41:14;;;;;;;0.98;0.08;;;23.00;98.30;;;;;;5047802;28;20060;-71
2022/08/05 10:44:04;;;;;;;1.17;0.10;;;23.70;96.20;;;;;;5053236;28;20076;-70
2022/08/05 10:46:53;;;;;;;2.20;0.10;;;23.80;93.60;;;;;;5030237;28;20045;-70
2022/08/05 10:49:20;;;;;;;1.00;0.00;;;23.70;81.70;;;;;;5048108;28;20143;-70
2022/08/05 10:51:56;;;;;;;1.42;0.10;;;23.70;76.50;;;;;;5036214;28;20063;-71
2022/08/05 10:54:23;;;;;;;1.38;0.00;;;23.50;77.70;;;;;;5044696;28;20135;-70
2022/08/05 10:56:52;;;;;;;0.70;0.03;;;23.60;75.50;;;;;;5018499;28;20365;-70
2022/08/05 10:59:26;;;;;;;3.50;0.10;;;24.00;79.00;;;;;;5034760;28;20453;-71
2022/08/05 11:02:07;;;;;;;0.90;0.00;;;23.50;68.00;;;;;;5042299;28;20387;-70
2022/08/05 11:04:45;;;;;;;1.40;0.00;;;24.10;60.00;;;;;;5048835;28;20299;-69
2022/08/05 11:07:14;;;;;;;2.67;0.10;;;23.30;64.60;;;;;;5010509;28;20476;-72
2022/08/05 11:09:48;;;;;;;0.75;0.10;;;23.80;66.50;;;;;;5032006;28;20044;-70
2022/08/05 11:12:41;;;;;;;1.65;0.00;;;24.30;63.70;;;;;;5037285;28;20814;-71
2022/08/05 11:15:17;;;;;;;1.02;0.00;;;24.30;64.40;;;;;;5044255;28;20048;-70
2022/08/05 11:17:48;;;;;;;0.75;0.05;;;24.10;81.10;;;;;;5031241;28;20072;-69
2022/08/05 11:20:38;;;;;;;1.55;0.20;;;24.20;69.10;;;;;;5045077;28;20079;-71
2022/08/05 11:23:29;;;;;;;1.23;0.00;;;24.10;62.40;;;;;;5037010;28;20187;-70
2022/08/05 11:26:03;;;;;;;1.23;0.00;;;24.20;61.40;;;;;;5033927;28;20374;-71
2022/08/05 11:28:29;;;;;;;0.30;0.00;;;24.10;63.40;;;;;;5031679;28;20074;-71
2022/08/05 11:30:55;;;;;;;2.60;0.10;;;24.60;60.20;;;;;;5031818;28;20053;-70
2022/08/05 11:33:50;;;;;;;1.17;0.00;;;24.50;64.40;;;;;;5035952;28;20056;-69
2022/08/05 11:36:19;;;;;;;1.60;0.10;;;24.10;64.00;;;;;;5031530;28;20041;-70
2022/08/05 11:38:46;;;;;;;1.40;0.00;;;24.10;64.70;;;;;;4997855;28;20152;-71
2022/08/05 11:41:23;;;;;;;0.40;0.00;;;23.80;65.60;;;;;;5029470;28;20506;-71
2022/08/05 11:44:14;;;;;;;1.75;0.10;;;24.20;63.50;;;;;;5013805;28;20048;-71
2022/08/05 11:46:51;;;;;;;3.17;0.10;;;24.40;66.50;;;;;;5011361;28;20610;-71
2022/08/05 11:49:20;;;;;;;1.85;0.10;;;23.90;66.40;;;;;;5036216;28;20504;-72
2022/08/05 11:51:48;;;;;;;2.15;0.10;;;24.20;68.50;;;;;;5007598;28;20462;-71
2022/08/05 11:54:28;;;;;;;1.55;0.10;;;23.90;70.40;;;;;;5031161;28;20053;-71
2022/08/05 11:56:56;;;;;;;1.70;0.10;;;23.20;76.40;;;;;;5036305;28;20041;-72
2022/08/05 11:59:24;;;;;;;0.98;0.00;;;23.40;73.40;;;;;;5031271;28;20048;-71
2022/08/05 12:01:57;;;;;;;2.80;0.10;;;23.40;72.70;;;;;;5041135;28;20128;-69
2022/08/05 12:04:24;;;;;;;1.17;0.13;;;23.50;74.00;;;;;;4999959;28;20036;-70
2022/08/05 12:06:50;;;;;;;2.03;0.10;;;23.70;71.40;;;;;;5041549;28;20055;-71
2022/08/05 12:09:29;;;;;;;3.22;0.10;;;24.10;66.90;;;;;;5036550;28;20053;-70
2022/08/05 12:11:55;;;;;;;0.98;0.20;;;24.20;65.10;;;;;;5033597;28;20036;-71
2022/08/05 12:14:21;;;;;;;2.10;0.10;;;24.00;62.20;;;;;;5034593;28;20643;-69
2022/08/05 12:16:47;;;;;;;2.88;0.10;;;24.00;65.00;;;;;;5037476;28;20109;-72
2022/08/05 12:19:14;;;;;;;1.65;0.20;;;23.40;70.20;;;;;;5033951;28;20036;-72
2022/08/05 12:21:46;;;;;;;1.92;0.10;;;23.20;69.20;;;;;;5032997;28;20417;-71
2022/08/05 12:24:13;;;;;;;2.23;0.10;;;22.90;69.30;;;;;;5041845;28;20202;-70
2022/08/05 12:26:41;;;;;;;1.58;0.00;;;22.90;60.80;;;;;;5040083;28;21367;-72
2022/08/05 12:29:12;;;;;;;2.90;0.10;;;22.90;66.90;;;;;;5033018;28;20048;-72
2022/08/05 12:31:39;;;;;;;0.75;0.00;;;23.00;62.70;;;;;;5046327;28;20510;-71
2022/08/05 12:34:06;;;;;;;2.22;0.00;;;22.80;63.90;;;;;;5045969;28;20044;-71
2022/08/05 12:36:33;;;;;;;2.70;0.00;;;23.00;68.90;;;;;;5021513;28;20080;-74
2022/08/05 12:38:59;;;;;;;1.88;0.00;;;22.50;69.60;;;;;;5047203;28;20160;-70
2022/08/05 12:41:34;;;;;;;1.33;0.10;;;22.80;72.40;;;;;;5025585;28;20101;-71
2022/08/05 12:44:02;;;;;;;1.10;0.10;;;22.40;73.70;;;;;;5039962;28;20066;-72
2022/08/05 12:46:31;;;;;;;2.40;0.10;;;21.90;80.30;;;;;;5044447;28;20056;-70
2022/08/05 12:48:57;;;;;;;1.23;0.00;;;22.50;80.50;;;;;;5034390;28;20091;-71
2022/08/05 12:51:23;;;;;;;5.80;0.10;;;22.60;80.80;;;;;;5007096;28;20631;-72
2022/08/05 12:53:49;;;;;;;2.05;0.10;;;22.90;77.00;;;;;;5032896;28;20045;-72
2022/08/05 12:56:21;;;;;;;3.63;0.10;;;23.10;69.00;;;;;;5013529;28;20144;-71
2022/08/05 12:59:10;;;;;;;0.82;0.20;;;23.40;72.80;;;;;;5041218;28;20052;-70
2022/08/05 13:01:36;;;;;;;5.78;0.22;;;23.10;73.10;;;;;;5023479;28;20056;-73